SWA736 KLAS-KSBA
Flight info
| Callsign | SWA736 |
|---|---|
| Flight time | 0h 57m |
| Altitude | 28000 |
| Route | RADYR2 HEC PITBL2 |
| Aircraft | B738/M-SDE2E3FGHIRWXY/LB1 |
Departure
| Time | 2026-05-04 23:39 |
|---|---|
| Airport | Harry Reid International Airport (KLAS) |
Arrival
| Time | 2026-05-05 00:36 |
|---|---|
| Airport | Santa Barbara Municipal Airport (KSBA) |
| Time | Latitude | Longitude | Altitude | Speed | Heading |
|---|---|---|---|---|---|
| 2026-05-04 23:13 | 36.08244 | -115.15143 | 2096 ft | 0 kts | 44° |
| 2026-05-04 23:24 | 36.08232 | -115.15157 | 2096 ft | 4 kts | 44° |
| 2026-05-04 23:24 | 36.08217 | -115.15174 | 2096 ft | 3 kts | 21° |
| 2026-05-04 23:24 | 36.08216 | -115.15175 | 2096 ft | 0 kts | 19° |
| 2026-05-04 23:25 | 36.08206 | -115.15178 | 2096 ft | 4 kts | 14° |
| 2026-05-04 23:25 | 36.08184 | -115.15185 | 2096 ft | 3 kts | 14° |
| 2026-05-04 23:25 | 36.08179 | -115.15187 | 2096 ft | 0 kts | 14° |
| 2026-05-04 23:28 | 36.08180 | -115.15186 | 2096 ft | 1 kts | 20° |
| 2026-05-04 23:28 | 36.08178 | -115.15173 | 2096 ft | 2 kts | 118° |
| 2026-05-04 23:28 | 36.08162 | -115.15156 | 2096 ft | 4 kts | 151° |
| 2026-05-04 23:29 | 36.08113 | -115.15161 | 2096 ft | 8 kts | 201° |
| 2026-05-04 23:29 | 36.08061 | -115.15191 | 2096 ft | 8 kts | 197° |
| 2026-05-04 23:29 | 36.08005 | -115.15199 | 2097 ft | 8 kts | 184° |
| 2026-05-04 23:29 | 36.07952 | -115.15202 | 2097 ft | 7 kts | 180° |
| 2026-05-04 23:30 | 36.07933 | -115.15202 | 2097 ft | 2 kts | 180° |
| 2026-05-04 23:30 | 36.07898 | -115.15202 | 2098 ft | 9 kts | 179° |
| 2026-05-04 23:30 | 36.07839 | -115.15187 | 2099 ft | 9 kts | 151° |
| 2026-05-04 23:30 | 36.07807 | -115.15128 | 2099 ft | 9 kts | 103° |
| 2026-05-04 23:31 | 36.07800 | -115.15035 | 2099 ft | 15 kts | 93° |
| 2026-05-04 23:31 | 36.07790 | -115.14871 | 2098 ft | 21 kts | 95° |
| 2026-05-04 23:31 | 36.07776 | -115.14690 | 2097 ft | 21 kts | 94° |
| 2026-05-04 23:31 | 36.07765 | -115.14513 | 2096 ft | 20 kts | 95° |
| 2026-05-04 23:32 | 36.07755 | -115.14342 | 2095 ft | 20 kts | 92° |
| 2026-05-04 23:32 | 36.07755 | -115.14177 | 2094 ft | 19 kts | 92° |
| 2026-05-04 23:32 | 36.07754 | -115.14018 | 2092 ft | 18 kts | 91° |
| 2026-05-04 23:32 | 36.07755 | -115.13863 | 2092 ft | 18 kts | 90° |
| 2026-05-04 23:33 | 36.07754 | -115.13713 | 2091 ft | 17 kts | 90° |
| 2026-05-04 23:33 | 36.07754 | -115.13564 | 2091 ft | 18 kts | 89° |
| 2026-05-04 23:33 | 36.07755 | -115.13411 | 2089 ft | 18 kts | 90° |
| 2026-05-04 23:33 | 36.07755 | -115.13266 | 2086 ft | 18 kts | 90° |
| 2026-05-04 23:34 | 36.07754 | -115.13114 | 2081 ft | 19 kts | 90° |
| 2026-05-04 23:34 | 36.07754 | -115.12945 | 2074 ft | 21 kts | 89° |
| 2026-05-04 23:34 | 36.07756 | -115.12772 | 2067 ft | 24 kts | 91° |
| 2026-05-04 23:34 | 36.07754 | -115.12560 | 2060 ft | 25 kts | 90° |
| 2026-05-04 23:35 | 36.07755 | -115.12411 | 2055 ft | 9 kts | 90° |
| 2026-05-04 23:35 | 36.07755 | -115.12344 | 2053 ft | 10 kts | 90° |
| 2026-05-04 23:35 | 36.07754 | -115.12243 | 2050 ft | 13 kts | 90° |
| 2026-05-04 23:35 | 36.07752 | -115.12163 | 2048 ft | 5 kts | 101° |
| 2026-05-04 23:36 | 36.07746 | -115.12146 | 2048 ft | 1 kts | 121° |
| 2026-05-04 23:36 | 36.07742 | -115.12141 | 2053 ft | 0 kts | 133° |
| 2026-05-04 23:36 | 36.07738 | -115.12135 | 2052 ft | 0 kts | 133° |
| 2026-05-04 23:37 | 36.07734 | -115.12131 | 2051 ft | 4 kts | 143° |
| 2026-05-04 23:37 | 36.07692 | -115.12126 | 2047 ft | 7 kts | 182° |
| 2026-05-04 23:37 | 36.07650 | -115.12149 | 2049 ft | 7 kts | 236° |
| 2026-05-04 23:38 | 36.07644 | -115.12261 | 2050 ft | 22 kts | 270° |
| 2026-05-04 23:38 | 36.07642 | -115.12716 | 2067 ft | 85 kts | 270° |
| 2026-05-04 23:38 | 36.07640 | -115.13660 | 2091 ft | 139 kts | 268° |
| 2026-05-04 23:38 | 36.07664 | -115.15029 | 2305 ft | 173 kts | 268° |
| 2026-05-04 23:39 | 36.07671 | -115.16579 | 2903 ft | 187 kts | 268° |
| 2026-05-04 23:39 | 36.07693 | -115.18213 | 3566 ft | 194 kts | 267° |
| 2026-05-04 23:39 | 36.07691 | -115.19915 | 3963 ft | 204 kts | 264° |
| 2026-05-04 23:39 | 36.07496 | -115.21683 | 4399 ft | 211 kts | 256° |
| 2026-05-04 23:40 | 36.07220 | -115.23516 | 4819 ft | 220 kts | 255° |
| 2026-05-04 23:40 | 36.06568 | -115.25237 | 5195 ft | 227 kts | 230° |
| 2026-05-04 23:40 | 36.05372 | -115.26560 | 5559 ft | 244 kts | 210° |
| 2026-05-04 23:40 | 36.03772 | -115.27376 | 5982 ft | 251 kts | 203° |
| 2026-05-04 23:41 | 36.02145 | -115.28101 | 6394 ft | 249 kts | 202° |
| 2026-05-04 23:41 | 36.00492 | -115.28842 | 6807 ft | 256 kts | 202° |
| 2026-05-04 23:41 | 35.98791 | -115.29573 | 7192 ft | 262 kts | 197° |
| 2026-05-04 23:41 | 35.97014 | -115.30067 | 7622 ft | 264 kts | 193° |
| 2026-05-04 23:42 | 35.95226 | -115.30485 | 8077 ft | 260 kts | 192° |
| 2026-05-04 23:42 | 35.93448 | -115.30891 | 8576 ft | 261 kts | 192° |
| 2026-05-04 23:42 | 35.91655 | -115.31307 | 9093 ft | 264 kts | 192° |
| 2026-05-04 23:42 | 35.89848 | -115.31732 | 9605 ft | 266 kts | 191° |
| 2026-05-04 23:43 | 35.88032 | -115.32165 | 10100 ft | 269 kts | 192° |
| 2026-05-04 23:43 | 35.86192 | -115.32606 | 10586 ft | 270 kts | 192° |
| 2026-05-04 23:43 | 35.84329 | -115.33059 | 11070 ft | 272 kts | 192° |
| 2026-05-04 23:43 | 35.82452 | -115.33518 | 11485 ft | 281 kts | 193° |
| 2026-05-04 23:44 | 35.80451 | -115.34010 | 11667 ft | 305 kts | 193° |
| 2026-05-04 23:44 | 35.78314 | -115.34535 | 11829 ft | 327 kts | 193° |
| 2026-05-04 23:44 | 35.76006 | -115.35101 | 11987 ft | 347 kts | 193° |
| 2026-05-04 23:44 | 35.73574 | -115.35695 | 12274 ft | 362 kts | 193° |
| 2026-05-04 23:45 | 35.71288 | -115.36253 | 12777 ft | 367 kts | 193° |
| 2026-05-04 23:45 | 35.69375 | -115.36719 | 13261 ft | 371 kts | 193° |
| 2026-05-04 23:45 | 35.66835 | -115.37339 | 13915 ft | 374 kts | 193° |
| 2026-05-04 23:45 | 35.64264 | -115.37967 | 14584 ft | 376 kts | 193° |
| 2026-05-04 23:46 | 35.61840 | -115.38788 | 15220 ft | 375 kts | 206° |
| 2026-05-04 23:46 | 35.59644 | -115.40503 | 15938 ft | 374 kts | 220° |
| 2026-05-04 23:46 | 35.57818 | -115.42729 | 16633 ft | 374 kts | 227° |
| 2026-05-04 23:46 | 35.56063 | -115.45121 | 17285 ft | 377 kts | 228° |
| 2026-05-04 23:47 | 35.54332 | -115.47527 | 17905 ft | 379 kts | 228° |
| 2026-05-04 23:47 | 35.52568 | -115.49972 | 18462 ft | 382 kts | 228° |
| 2026-05-04 23:47 | 35.50789 | -115.52416 | 18997 ft | 383 kts | 228° |
| 2026-05-04 23:47 | 35.48997 | -115.54854 | 19519 ft | 385 kts | 228° |
| 2026-05-04 23:48 | 35.47189 | -115.57300 | 20063 ft | 386 kts | 228° |
| 2026-05-04 23:48 | 35.45402 | -115.59714 | 20587 ft | 388 kts | 228° |
| 2026-05-04 23:48 | 35.43608 | -115.62130 | 21081 ft | 391 kts | 229° |
| 2026-05-04 23:48 | 35.41772 | -115.64599 | 21584 ft | 393 kts | 229° |
| 2026-05-04 23:49 | 35.39921 | -115.67086 | 22041 ft | 396 kts | 229° |
| 2026-05-04 23:49 | 35.38686 | -115.68747 | 22334 ft | 397 kts | 229° |
| 2026-05-04 23:49 | 35.36198 | -115.72086 | 22939 ft | 400 kts | 229° |
| 2026-05-04 23:49 | 35.34925 | -115.73793 | 23233 ft | 401 kts | 229° |
| 2026-05-04 23:50 | 35.33051 | -115.76288 | 23633 ft | 403 kts | 229° |
| 2026-05-04 23:50 | 35.31133 | -115.78805 | 24048 ft | 403 kts | 228° |
| 2026-05-04 23:50 | 35.29223 | -115.81298 | 24663 ft | 397 kts | 229° |
| 2026-05-04 23:50 | 35.27349 | -115.83746 | 25239 ft | 393 kts | 229° |
| 2026-05-04 23:51 | 35.25486 | -115.86184 | 25805 ft | 389 kts | 229° |
| 2026-05-04 23:51 | 35.23668 | -115.88564 | 26428 ft | 383 kts | 229° |
| 2026-05-04 23:51 | 35.21863 | -115.90926 | 27131 ft | 376 kts | 229° |
| 2026-05-04 23:51 | 35.20084 | -115.93251 | 27710 ft | 372 kts | 229° |
| 2026-05-04 23:52 | 35.18319 | -115.95572 | 27895 ft | 373 kts | 228° |
| 2026-05-04 23:52 | 35.16548 | -115.97913 | 27882 ft | 373 kts | 229° |
| 2026-05-04 23:52 | 35.14790 | -116.00238 | 27887 ft | 371 kts | 229° |
| 2026-05-04 23:52 | 35.13060 | -116.02525 | 27878 ft | 370 kts | 229° |
| 2026-05-04 23:53 | 35.11313 | -116.04833 | 27881 ft | 370 kts | 228° |
| 2026-05-04 23:53 | 35.09557 | -116.07151 | 27878 ft | 369 kts | 228° |
| 2026-05-04 23:53 | 35.07809 | -116.09457 | 27877 ft | 369 kts | 228° |
| 2026-05-04 23:53 | 35.06058 | -116.11763 | 27879 ft | 369 kts | 228° |
| 2026-05-04 23:54 | 35.04330 | -116.14038 | 27867 ft | 369 kts | 228° |
| 2026-05-04 23:54 | 35.02577 | -116.16346 | 27886 ft | 369 kts | 229° |
| 2026-05-04 23:54 | 35.00824 | -116.18651 | 27865 ft | 370 kts | 228° |
| 2026-05-04 23:54 | 34.99072 | -116.20951 | 27864 ft | 370 kts | 228° |
| 2026-05-04 23:55 | 34.97314 | -116.23258 | 27853 ft | 370 kts | 228° |
| 2026-05-04 23:55 | 34.95583 | -116.25530 | 27861 ft | 370 kts | 229° |
| 2026-05-04 23:55 | 34.92071 | -116.30136 | 27866 ft | 370 kts | 228° |
| 2026-05-04 23:56 | 34.90316 | -116.32430 | 27873 ft | 369 kts | 228° |
| 2026-05-04 23:56 | 34.88576 | -116.34705 | 27867 ft | 369 kts | 228° |
| 2026-05-04 23:56 | 34.86826 | -116.36995 | 27877 ft | 369 kts | 228° |
| 2026-05-04 23:56 | 34.85072 | -116.39286 | 27877 ft | 369 kts | 228° |
| 2026-05-04 23:57 | 34.83315 | -116.41580 | 27884 ft | 370 kts | 228° |
| 2026-05-04 23:57 | 34.81576 | -116.43886 | 27877 ft | 369 kts | 231° |
| 2026-05-04 23:57 | 34.80216 | -116.46501 | 27893 ft | 371 kts | 241° |
| 2026-05-04 23:57 | 34.79238 | -116.49419 | 27883 ft | 374 kts | 250° |
| 2026-05-04 23:58 | 34.78692 | -116.52533 | 27904 ft | 377 kts | 254° |
| 2026-05-04 23:58 | 34.78231 | -116.55698 | 27893 ft | 377 kts | 255° |
| 2026-05-04 23:58 | 34.77792 | -116.58812 | 27906 ft | 377 kts | 254° |
| 2026-05-04 23:58 | 34.77347 | -116.61961 | 27895 ft | 377 kts | 254° |
| 2026-05-04 23:59 | 34.76896 | -116.65114 | 27895 ft | 377 kts | 254° |
| 2026-05-04 23:59 | 34.76441 | -116.68254 | 27901 ft | 376 kts | 254° |
| 2026-05-04 23:59 | 34.75982 | -116.71387 | 27905 ft | 376 kts | 254° |
| 2026-05-04 23:59 | 34.75524 | -116.74485 | 27914 ft | 375 kts | 254° |
| 2026-05-05 00:00 | 34.75059 | -116.77615 | 27911 ft | 376 kts | 254° |
| 2026-05-05 00:00 | 34.74749 | -116.79691 | 27909 ft | 377 kts | 254° |
| 2026-05-05 00:00 | 34.74121 | -116.83888 | 27903 ft | 377 kts | 254° |
| 2026-05-05 00:00 | 34.73648 | -116.87035 | 27920 ft | 377 kts | 254° |
| 2026-05-05 00:01 | 34.73182 | -116.90135 | 27912 ft | 378 kts | 254° |
| 2026-05-05 00:01 | 34.72710 | -116.93274 | 27913 ft | 378 kts | 253° |
| 2026-05-05 00:01 | 34.72234 | -116.96427 | 27911 ft | 378 kts | 253° |
| 2026-05-05 00:01 | 34.71757 | -116.99583 | 27905 ft | 378 kts | 253° |
| 2026-05-05 00:02 | 34.71278 | -117.02743 | 27903 ft | 378 kts | 253° |
| 2026-05-05 00:02 | 34.70807 | -117.05845 | 27913 ft | 378 kts | 254° |
| 2026-05-05 00:02 | 34.70330 | -117.08990 | 27898 ft | 377 kts | 254° |
| 2026-05-05 00:02 | 34.69857 | -117.12126 | 27900 ft | 376 kts | 253° |
| 2026-05-05 00:03 | 34.69382 | -117.15263 | 27916 ft | 376 kts | 253° |
| 2026-05-05 00:03 | 34.68907 | -117.18364 | 27951 ft | 377 kts | 253° |
| 2026-05-05 00:03 | 34.68353 | -117.21964 | 27974 ft | 378 kts | 253° |
| 2026-05-05 00:03 | 34.67937 | -117.24667 | 27982 ft | 379 kts | 253° |
| 2026-05-05 00:04 | 34.67452 | -117.27819 | 27983 ft | 379 kts | 253° |
| 2026-05-05 00:04 | 34.66972 | -117.30936 | 27997 ft | 380 kts | 253° |
| 2026-05-05 00:04 | 34.66486 | -117.34086 | 27994 ft | 380 kts | 253° |
| 2026-05-05 00:04 | 34.65996 | -117.37259 | 27982 ft | 380 kts | 253° |
| 2026-05-05 00:05 | 34.65508 | -117.40414 | 27993 ft | 380 kts | 253° |
| 2026-05-05 00:05 | 34.65019 | -117.43574 | 27989 ft | 380 kts | 253° |
| 2026-05-05 00:05 | 34.64527 | -117.46741 | 27992 ft | 380 kts | 253° |
| 2026-05-05 00:06 | 34.63549 | -117.53025 | 27980 ft | 381 kts | 254° |
| 2026-05-05 00:06 | 34.63052 | -117.56206 | 27981 ft | 381 kts | 253° |
| 2026-05-05 00:06 | 34.62557 | -117.59375 | 27967 ft | 381 kts | 253° |
| 2026-05-05 00:06 | 34.62062 | -117.62536 | 27971 ft | 380 kts | 253° |
| 2026-05-05 00:07 | 34.61574 | -117.65649 | 27966 ft | 380 kts | 254° |
| 2026-05-05 00:07 | 34.61078 | -117.68809 | 27957 ft | 380 kts | 253° |
| 2026-05-05 00:07 | 34.60580 | -117.71967 | 27963 ft | 380 kts | 253° |
| 2026-05-05 00:07 | 34.60081 | -117.75135 | 27962 ft | 380 kts | 253° |
| 2026-05-05 00:08 | 34.59583 | -117.78283 | 27965 ft | 380 kts | 253° |
| 2026-05-05 00:08 | 34.59090 | -117.81398 | 27966 ft | 380 kts | 253° |
| 2026-05-05 00:08 | 34.58590 | -117.84548 | 27983 ft | 379 kts | 253° |
| 2026-05-05 00:08 | 34.58091 | -117.87695 | 27985 ft | 379 kts | 253° |
| 2026-05-05 00:09 | 34.57591 | -117.90841 | 27979 ft | 379 kts | 253° |
| 2026-05-05 00:09 | 34.56585 | -117.97142 | 27998 ft | 380 kts | 254° |
| 2026-05-05 00:09 | 34.56082 | -118.00291 | 27995 ft | 380 kts | 254° |
| 2026-05-05 00:10 | 34.55581 | -118.03416 | 27991 ft | 380 kts | 254° |
| 2026-05-05 00:10 | 34.54567 | -118.09730 | 28000 ft | 381 kts | 254° |
| 2026-05-05 00:10 | 34.54057 | -118.12894 | 27982 ft | 381 kts | 254° |
| 2026-05-05 00:11 | 34.53552 | -118.16026 | 27991 ft | 381 kts | 254° |
| 2026-05-05 00:11 | 34.52531 | -118.22348 | 27987 ft | 382 kts | 254° |
| 2026-05-05 00:11 | 34.52018 | -118.25509 | 27970 ft | 382 kts | 254° |
| 2026-05-05 00:12 | 34.51504 | -118.28676 | 27389 ft | 381 kts | 254° |
| 2026-05-05 00:12 | 34.50998 | -118.31807 | 26873 ft | 375 kts | 255° |
| 2026-05-05 00:12 | 34.50502 | -118.34850 | 26356 ft | 370 kts | 255° |
| 2026-05-05 00:12 | 34.50006 | -118.37896 | 25854 ft | 366 kts | 255° |
| 2026-05-05 00:13 | 34.49818 | -118.40984 | 25340 ft | 366 kts | 264° |
| 2026-05-05 00:13 | 34.49797 | -118.44074 | 24838 ft | 364 kts | 265° |
| 2026-05-05 00:13 | 34.49834 | -118.47137 | 24337 ft | 361 kts | 266° |
| 2026-05-05 00:13 | 34.49640 | -118.50100 | 23862 ft | 353 kts | 255° |
| 2026-05-05 00:14 | 34.48938 | -118.52932 | 23368 ft | 349 kts | 248° |
| 2026-05-05 00:14 | 34.47967 | -118.55614 | 22800 ft | 347 kts | 244° |
| 2026-05-05 00:14 | 34.46949 | -118.58272 | 22243 ft | 345 kts | 244° |
| 2026-05-05 00:14 | 34.45941 | -118.60913 | 21702 ft | 344 kts | 244° |
| 2026-05-05 00:15 | 34.44956 | -118.63508 | 21168 ft | 342 kts | 244° |
| 2026-05-05 00:15 | 34.43966 | -118.66128 | 20646 ft | 341 kts | 244° |
| 2026-05-05 00:15 | 34.42978 | -118.68746 | 20135 ft | 341 kts | 244° |
| 2026-05-05 00:15 | 34.41995 | -118.71362 | 19620 ft | 340 kts | 244° |
| 2026-05-05 00:16 | 34.41015 | -118.73966 | 19128 ft | 340 kts | 244° |
| 2026-05-05 00:16 | 34.40029 | -118.76576 | 18627 ft | 339 kts | 244° |
| 2026-05-05 00:16 | 34.39056 | -118.79149 | 18132 ft | 339 kts | 244° |
| 2026-05-05 00:16 | 34.38072 | -118.81751 | 17573 ft | 339 kts | 244° |
| 2026-05-05 00:17 | 34.37182 | -118.84397 | 17014 ft | 340 kts | 253° |
| 2026-05-05 00:17 | 34.36858 | -118.87249 | 16496 ft | 342 kts | 263° |
| 2026-05-05 00:17 | 34.36685 | -118.90119 | 15977 ft | 342 kts | 263° |
| 2026-05-05 00:17 | 34.36519 | -118.92971 | 15449 ft | 337 kts | 263° |
| 2026-05-05 00:18 | 34.36349 | -118.95744 | 14925 ft | 330 kts | 263° |
| 2026-05-05 00:18 | 34.36172 | -118.98489 | 14402 ft | 323 kts | 263° |
| 2026-05-05 00:18 | 34.35992 | -119.01173 | 13906 ft | 315 kts | 263° |
| 2026-05-05 00:18 | 34.35812 | -119.03791 | 13353 ft | 309 kts | 263° |
| 2026-05-05 00:19 | 34.35635 | -119.06342 | 12810 ft | 304 kts | 264° |
| 2026-05-05 00:19 | 34.35457 | -119.08883 | 12273 ft | 300 kts | 264° |
| 2026-05-05 00:19 | 34.35297 | -119.11386 | 11737 ft | 296 kts | 267° |
| 2026-05-05 00:19 | 34.35325 | -119.13638 | 11273 ft | 294 kts | 272° |
| 2026-05-05 00:20 | 34.35453 | -119.16053 | 10844 ft | 288 kts | 272° |
| 2026-05-05 00:20 | 34.35592 | -119.18425 | 10410 ft | 283 kts | 273° |
| 2026-05-05 00:20 | 34.35726 | -119.20789 | 9990 ft | 278 kts | 273° |
| 2026-05-05 00:20 | 34.35842 | -119.23001 | 9543 ft | 279 kts | 273° |
| 2026-05-05 00:21 | 34.35961 | -119.25341 | 9076 ft | 279 kts | 272° |
| 2026-05-05 00:21 | 34.36078 | -119.27684 | 8638 ft | 277 kts | 272° |
| 2026-05-05 00:21 | 34.36186 | -119.29985 | 8142 ft | 277 kts | 272° |
| 2026-05-05 00:21 | 34.36276 | -119.31970 | 7744 ft | 274 kts | 272° |
| 2026-05-05 00:22 | 34.36374 | -119.34105 | 7327 ft | 271 kts | 272° |
| 2026-05-05 00:22 | 34.36482 | -119.36315 | 6959 ft | 265 kts | 272° |
| 2026-05-05 00:22 | 34.36579 | -119.38497 | 6663 ft | 261 kts | 272° |
| 2026-05-05 00:22 | 34.36664 | -119.40481 | 6391 ft | 262 kts | 272° |
| 2026-05-05 00:23 | 34.36764 | -119.42702 | 6034 ft | 264 kts | 272° |
| 2026-05-05 00:23 | 34.36862 | -119.44907 | 5706 ft | 262 kts | 272° |
| 2026-05-05 00:23 | 34.36959 | -119.47100 | 5366 ft | 260 kts | 272° |
| 2026-05-05 00:23 | 34.37037 | -119.48875 | 5116 ft | 257 kts | 272° |
| 2026-05-05 00:24 | 34.37095 | -119.50271 | 4976 ft | 250 kts | 271° |
| 2026-05-05 00:24 | 34.37117 | -119.52109 | 4979 ft | 235 kts | 269° |
| 2026-05-05 00:24 | 34.37119 | -119.54028 | 4970 ft | 220 kts | 270° |
| 2026-05-05 00:24 | 34.37090 | -119.55627 | 4982 ft | 222 kts | 268° |
| 2026-05-05 00:25 | 34.37096 | -119.57343 | 4982 ft | 221 kts | 272° |
| 2026-05-05 00:25 | 34.37122 | -119.59200 | 4964 ft | 219 kts | 270° |
| 2026-05-05 00:25 | 34.37134 | -119.61034 | 4975 ft | 215 kts | 270° |
| 2026-05-05 00:25 | 34.37143 | -119.62821 | 4980 ft | 215 kts | 269° |
| 2026-05-05 00:26 | 34.37152 | -119.64580 | 4987 ft | 215 kts | 270° |
| 2026-05-05 00:26 | 34.37160 | -119.66366 | 4977 ft | 219 kts | 270° |
| 2026-05-05 00:26 | 34.37340 | -119.68199 | 4966 ft | 222 kts | 292° |
| 2026-05-05 00:26 | 34.38278 | -119.69651 | 4973 ft | 222 kts | 323° |
| 2026-05-05 00:27 | 34.39718 | -119.70212 | 4994 ft | 219 kts | 359° |
| 2026-05-05 00:27 | 34.41214 | -119.69886 | 4985 ft | 219 kts | 12° |
| 2026-05-05 00:27 | 34.42687 | -119.69447 | 4977 ft | 217 kts | 12° |
| 2026-05-05 00:27 | 34.44169 | -119.69008 | 4998 ft | 220 kts | 12° |
| 2026-05-05 00:28 | 34.45661 | -119.68565 | 4931 ft | 222 kts | 11° |
| 2026-05-05 00:28 | 34.47165 | -119.68120 | 4775 ft | 223 kts | 11° |
| 2026-05-05 00:28 | 34.48677 | -119.67663 | 4637 ft | 224 kts | 13° |
| 2026-05-05 00:28 | 34.50157 | -119.67211 | 4457 ft | 220 kts | 12° |
| 2026-05-05 00:29 | 34.51559 | -119.66494 | 4260 ft | 221 kts | 38° |
| 2026-05-05 00:29 | 34.52410 | -119.64991 | 4095 ft | 218 kts | 74° |
| 2026-05-05 00:29 | 34.52393 | -119.63197 | 3988 ft | 216 kts | 111° |
| 2026-05-05 00:29 | 34.51533 | -119.61757 | 3900 ft | 214 kts | 148° |
| 2026-05-05 00:30 | 34.50165 | -119.61190 | 3861 ft | 211 kts | 182° |
| 2026-05-05 00:30 | 34.48728 | -119.61386 | 3869 ft | 207 kts | 191° |
| 2026-05-05 00:30 | 34.47320 | -119.61648 | 3897 ft | 202 kts | 192° |
| 2026-05-05 00:30 | 34.45970 | -119.61994 | 3873 ft | 193 kts | 207° |
| 2026-05-05 00:31 | 34.44978 | -119.62990 | 3848 ft | 186 kts | 230° |
| 2026-05-05 00:31 | 34.44102 | -119.64227 | 3458 ft | 199 kts | 230° |
| 2026-05-05 00:31 | 34.43216 | -119.65497 | 3093 ft | 194 kts | 231° |
| 2026-05-05 00:31 | 34.42354 | -119.66732 | 2763 ft | 190 kts | 230° |
| 2026-05-05 00:32 | 34.41605 | -119.68030 | 2368 ft | 186 kts | 242° |
| 2026-05-05 00:32 | 34.40986 | -119.69378 | 2052 ft | 181 kts | 241° |
| 2026-05-05 00:32 | 34.40426 | -119.70682 | 1780 ft | 170 kts | 250° |
| 2026-05-05 00:32 | 34.40176 | -119.71549 | 1653 ft | 161 kts | 252° |
| 2026-05-05 00:33 | 34.39873 | -119.72816 | 1423 ft | 152 kts | 256° |
| 2026-05-05 00:33 | 34.39776 | -119.74046 | 1251 ft | 145 kts | 275° |
| 2026-05-05 00:33 | 34.40116 | -119.75177 | 1279 ft | 142 kts | 297° |
| 2026-05-05 00:33 | 34.40603 | -119.76176 | 1232 ft | 134 kts | 296° |
| 2026-05-05 00:34 | 34.41078 | -119.77130 | 1189 ft | 133 kts | 300° |
| 2026-05-05 00:34 | 34.41556 | -119.78083 | 1134 ft | 135 kts | 298° |
| 2026-05-05 00:34 | 34.42080 | -119.79038 | 1005 ft | 136 kts | 300° |
| 2026-05-05 00:34 | 34.42558 | -119.79996 | 800 ft | 130 kts | 290° |
| 2026-05-05 00:35 | 34.42787 | -119.81034 | 567 ft | 125 kts | 273° |
| 2026-05-05 00:35 | 34.42810 | -119.82074 | 326 ft | 122 kts | 269° |
| 2026-05-05 00:35 | 34.42800 | -119.83085 | 115 ft | 121 kts | 266° |
| 2026-05-05 00:35 | 34.42780 | -119.84075 | 24 ft | 109 kts | 266° |
| 2026-05-05 00:36 | 34.42762 | -119.84874 | 19 ft | 75 kts | 269° |
| 2026-05-05 00:36 | 34.42753 | -119.85275 | 20 ft | 26 kts | 272° |
| 2026-05-05 00:36 | 34.42705 | -119.85403 | 20 ft | 13 kts | 186° |
| 2026-05-05 00:36 | 34.42644 | -119.85340 | 19 ft | 12 kts | 111° |
| 2026-05-05 00:37 | 34.42641 | -119.85239 | 19 ft | 12 kts | 89° |
| 2026-05-05 00:37 | 34.42643 | -119.85139 | 19 ft | 12 kts | 88° |
| 2026-05-05 00:37 | 34.42646 | -119.85038 | 19 ft | 13 kts | 88° |
| 2026-05-05 00:37 | 34.42649 | -119.84888 | 19 ft | 21 kts | 89° |
| 2026-05-05 00:38 | 34.42652 | -119.84714 | 19 ft | 21 kts | 89° |
| 2026-05-05 00:38 | 34.42656 | -119.84543 | 19 ft | 20 kts | 88° |
| 2026-05-05 00:38 | 34.42661 | -119.84378 | 19 ft | 19 kts | 88° |
| 2026-05-05 00:38 | 34.42663 | -119.84217 | 19 ft | 19 kts | 90° |
| 2026-05-05 00:39 | 34.42667 | -119.84064 | 21 ft | 17 kts | 88° |
| 2026-05-05 00:39 | 34.42670 | -119.83926 | 21 ft | 15 kts | 89° |
| 2026-05-05 00:39 | 34.42655 | -119.83838 | 21 ft | 10 kts | 134° |
| 2026-05-05 00:39 | 34.42590 | -119.83812 | 19 ft | 10 kts | 166° |
| 2026-05-05 00:40 | 34.42527 | -119.83789 | 19 ft | 10 kts | 164° |
| 2026-05-05 00:40 | 34.42478 | -119.83739 | 19 ft | 8 kts | 127° |
| 2026-05-05 00:40 | 34.42461 | -119.83712 | 20 ft | 2 kts | 129° |
| 2026-05-05 00:40 | 34.42459 | -119.83710 | 19 ft | 0 kts | 128° |